CFG4418 LIRF-EDDF
Flight info
| Callsign | CFG4418 |
|---|---|
| Flight time | 1h 30m |
| Altitude | 38000 |
| Route | SOVAN DCT AMTEL DCT BORMI DCT OZE DCT NAXAV DCT UNIMI L12 MOGTI Q163 OLASO/N0440F320 Q163 HAFUN/N0399F240 Q163 ETASA T163 SPESA SPESA5B |
| Aircraft | A320/M-SDE3FGHIRWY/LB1 |
Departure
| Time | 2026-05-06 03:54 |
|---|---|
| Airport | Rome–Fiumicino Leonardo da Vinci International Airport (LIRF) |
Arrival
| Time | 2026-05-06 05:24 |
|---|---|
| Airport | Frankfurt Main Airport (EDDF) |
| Time | Latitude | Longitude | Altitude | Speed | Heading |
|---|---|---|---|---|---|
| 2026-05-06 03:20 | 41.79768 | 12.25667 | 19 ft | 0 kts | 295° |
| 2026-05-06 03:37 | 41.79768 | 12.25668 | 18 ft | 0 kts | 295° |
| 2026-05-06 03:42 | 41.79757 | 12.25693 | 21 ft | 4 kts | 309° |
| 2026-05-06 03:43 | 41.79738 | 12.25716 | 20 ft | 4 kts | 346° |
| 2026-05-06 03:43 | 41.79720 | 12.25716 | 21 ft | 1 kts | 25° |
| 2026-05-06 03:43 | 41.79718 | 12.25714 | 21 ft | 2 kts | 25° |
| 2026-05-06 03:45 | 41.79717 | 12.25714 | 21 ft | 0 kts | 25° |
| 2026-05-06 03:47 | 41.79731 | 12.25722 | 19 ft | 8 kts | 25° |
| 2026-05-06 03:48 | 41.79791 | 12.25760 | 20 ft | 9 kts | 25° |
| 2026-05-06 03:48 | 41.79843 | 12.25796 | 20 ft | 8 kts | 31° |
| 2026-05-06 03:48 | 41.79884 | 12.25833 | 18 ft | 7 kts | 29° |
| 2026-05-06 03:48 | 41.79927 | 12.25818 | 18 ft | 7 kts | 306° |
| 2026-05-06 03:49 | 41.79956 | 12.25734 | 18 ft | 14 kts | 295° |
| 2026-05-06 03:49 | 41.80004 | 12.25599 | 19 ft | 16 kts | 295° |
| 2026-05-06 03:49 | 41.80049 | 12.25469 | 19 ft | 14 kts | 294° |
| 2026-05-06 03:49 | 41.80092 | 12.25365 | 21 ft | 10 kts | 314° |
| 2026-05-06 03:50 | 41.80137 | 12.25371 | 20 ft | 9 kts | 26° |
| 2026-05-06 03:50 | 41.80244 | 12.25425 | 19 ft | 21 kts | 21° |
| 2026-05-06 03:50 | 41.80339 | 12.25553 | 17 ft | 20 kts | 68° |
| 2026-05-06 03:50 | 41.80386 | 12.25729 | 16 ft | 21 kts | 71° |
| 2026-05-06 03:51 | 41.80443 | 12.25926 | 15 ft | 23 kts | 68° |
| 2026-05-06 03:51 | 41.80499 | 12.26133 | 14 ft | 24 kts | 70° |
| 2026-05-06 03:51 | 41.80558 | 12.26346 | 17 ft | 24 kts | 70° |
| 2026-05-06 03:51 | 41.80616 | 12.26562 | 15 ft | 26 kts | 70° |
| 2026-05-06 03:52 | 41.80679 | 12.26790 | 13 ft | 27 kts | 70° |
| 2026-05-06 03:52 | 41.80733 | 12.26993 | 10 ft | 16 kts | 62° |
| 2026-05-06 03:52 | 41.80832 | 12.27029 | 11 ft | 17 kts | 341° |
| 2026-05-06 03:52 | 41.80931 | 12.26978 | 11 ft | 14 kts | 338° |
| 2026-05-06 03:53 | 41.80950 | 12.26896 | 12 ft | 0 kts | 248° |
| 2026-05-06 03:53 | 41.80949 | 12.26893 | 12 ft | 3 kts | 248° |
| 2026-05-06 03:53 | 41.80862 | 12.26577 | 14 ft | 75 kts | 249° |
| 2026-05-06 03:54 | 41.80602 | 12.25642 | 14 ft | 137 kts | 249° |
| 2026-05-06 03:54 | 41.80223 | 12.24238 | 180 ft | 170 kts | 251° |
| 2026-05-06 03:54 | 41.79840 | 12.22781 | 975 ft | 163 kts | 246° |
| 2026-05-06 03:54 | 41.79439 | 12.21354 | 1683 ft | 163 kts | 245° |
| 2026-05-06 03:55 | 41.79148 | 12.19842 | 2184 ft | 182 kts | 266° |
| 2026-05-06 03:55 | 41.79549 | 12.18143 | 2609 ft | 207 kts | 303° |
| 2026-05-06 03:55 | 41.80508 | 12.16610 | 3064 ft | 224 kts | 308° |
| 2026-05-06 03:55 | 41.81525 | 12.14988 | 3802 ft | 225 kts | 304° |
| 2026-05-06 03:56 | 41.82508 | 12.13379 | 4688 ft | 222 kts | 303° |
| 2026-05-06 03:56 | 41.83476 | 12.11762 | 5519 ft | 222 kts | 301° |
| 2026-05-06 03:56 | 41.84220 | 12.09998 | 6258 ft | 216 kts | 283° |
| 2026-05-06 03:56 | 41.84527 | 12.07962 | 6652 ft | 234 kts | 271° |
| 2026-05-06 03:57 | 41.84702 | 12.05677 | 7033 ft | 258 kts | 271° |
| 2026-05-06 03:57 | 41.84896 | 12.03266 | 7696 ft | 268 kts | 272° |
| 2026-05-06 03:57 | 41.85105 | 12.00763 | 8525 ft | 272 kts | 272° |
| 2026-05-06 03:57 | 41.85323 | 11.98214 | 9371 ft | 277 kts | 273° |
| 2026-05-06 03:58 | 41.85547 | 11.95629 | 10160 ft | 284 kts | 273° |
| 2026-05-06 03:58 | 41.85779 | 11.92892 | 10450 ft | 307 kts | 273° |
| 2026-05-06 03:58 | 41.86159 | 11.89970 | 10798 ft | 329 kts | 286° |
| 2026-05-06 03:58 | 41.87367 | 11.87311 | 10962 ft | 342 kts | 312° |
| 2026-05-06 03:59 | 41.89397 | 11.85627 | 10985 ft | 351 kts | 340° |
| 2026-05-06 03:59 | 41.91800 | 11.85340 | 10988 ft | 357 kts | 7° |
| 2026-05-06 03:59 | 41.94136 | 11.86450 | 10993 ft | 359 kts | 26° |
| 2026-05-06 03:59 | 41.96362 | 11.87990 | 10986 ft | 360 kts | 28° |
| 2026-05-06 04:00 | 41.98578 | 11.89607 | 10993 ft | 371 kts | 28° |
| 2026-05-06 04:00 | 42.00934 | 11.91356 | 11047 ft | 400 kts | 28° |
| 2026-05-06 04:00 | 42.03375 | 11.93155 | 11941 ft | 394 kts | 28° |
| 2026-05-06 04:00 | 42.05729 | 11.94876 | 13352 ft | 379 kts | 27° |
| 2026-05-06 04:01 | 42.08045 | 11.96549 | 14271 ft | 377 kts | 27° |
| 2026-05-06 04:01 | 42.10369 | 11.98214 | 14957 ft | 380 kts | 27° |
| 2026-05-06 04:01 | 42.12686 | 11.99871 | 15598 ft | 384 kts | 26° |
| 2026-05-06 04:01 | 42.15086 | 12.01513 | 16217 ft | 388 kts | 21° |
| 2026-05-06 04:02 | 42.17653 | 12.02633 | 16857 ft | 389 kts | 9° |
| 2026-05-06 04:02 | 42.20338 | 12.03096 | 17498 ft | 389 kts | 358° |
| 2026-05-06 04:02 | 42.23030 | 12.02866 | 18139 ft | 388 kts | 347° |
| 2026-05-06 04:02 | 42.25704 | 12.02251 | 18730 ft | 391 kts | 346° |
| 2026-05-06 04:03 | 42.28398 | 12.01635 | 19305 ft | 394 kts | 346° |
| 2026-05-06 04:03 | 42.31075 | 12.01028 | 19863 ft | 397 kts | 346° |
| 2026-05-06 04:03 | 42.33807 | 12.00412 | 20429 ft | 400 kts | 346° |
| 2026-05-06 04:03 | 42.36563 | 11.99795 | 20991 ft | 403 kts | 347° |
| 2026-05-06 04:04 | 42.39341 | 11.99176 | 21552 ft | 406 kts | 347° |
| 2026-05-06 04:04 | 42.42141 | 11.98549 | 22112 ft | 409 kts | 346° |
| 2026-05-06 04:04 | 42.44965 | 11.97912 | 22658 ft | 413 kts | 346° |
| 2026-05-06 04:04 | 42.47805 | 11.97271 | 23194 ft | 416 kts | 346° |
| 2026-05-06 04:05 | 42.50665 | 11.96621 | 23682 ft | 419 kts | 346° |
| 2026-05-06 04:05 | 42.53518 | 11.95974 | 24101 ft | 422 kts | 346° |
| 2026-05-06 04:05 | 42.56427 | 11.95317 | 24516 ft | 425 kts | 346° |
| 2026-05-06 04:05 | 42.59346 | 11.94657 | 24922 ft | 427 kts | 346° |
| 2026-05-06 04:06 | 42.62284 | 11.93991 | 25324 ft | 430 kts | 346° |
| 2026-05-06 04:06 | 42.65245 | 11.93319 | 25705 ft | 432 kts | 346° |
| 2026-05-06 04:06 | 42.68227 | 11.92644 | 26100 ft | 435 kts | 346° |
| 2026-05-06 04:06 | 42.71209 | 11.91966 | 26487 ft | 437 kts | 345° |
| 2026-05-06 04:07 | 42.74217 | 11.91279 | 26869 ft | 439 kts | 346° |
| 2026-05-06 04:07 | 42.77203 | 11.90599 | 27215 ft | 442 kts | 345° |
| 2026-05-06 04:07 | 42.80236 | 11.89909 | 27588 ft | 444 kts | 345° |
| 2026-05-06 04:07 | 42.83217 | 11.88907 | 27958 ft | 440 kts | 336° |
| 2026-05-06 04:08 | 42.86030 | 11.87309 | 28297 ft | 436 kts | 327° |
| 2026-05-06 04:08 | 42.88704 | 11.85347 | 28647 ft | 437 kts | 326° |
| 2026-05-06 04:08 | 42.91376 | 11.83384 | 28997 ft | 440 kts | 326° |
| 2026-05-06 04:08 | 42.94085 | 11.81405 | 29317 ft | 442 kts | 326° |
| 2026-05-06 04:09 | 42.96772 | 11.79445 | 29632 ft | 444 kts | 326° |
| 2026-05-06 04:09 | 42.99501 | 11.77451 | 29954 ft | 446 kts | 326° |
| 2026-05-06 04:09 | 43.02241 | 11.75445 | 30235 ft | 448 kts | 325° |
| 2026-05-06 04:09 | 43.04986 | 11.73430 | 30494 ft | 449 kts | 325° |
| 2026-05-06 04:10 | 43.07748 | 11.71397 | 30749 ft | 451 kts | 325° |
| 2026-05-06 04:10 | 43.10511 | 11.69359 | 30987 ft | 452 kts | 325° |
| 2026-05-06 04:10 | 43.13285 | 11.67313 | 31227 ft | 453 kts | 325° |
| 2026-05-06 04:10 | 43.16062 | 11.65266 | 31530 ft | 453 kts | 325° |
| 2026-05-06 04:11 | 43.18878 | 11.63200 | 31863 ft | 453 kts | 326° |
| 2026-05-06 04:11 | 43.21716 | 11.61553 | 32187 ft | 460 kts | 335° |
| 2026-05-06 04:11 | 43.24836 | 11.60467 | 32515 ft | 467 kts | 344° |
| 2026-05-06 04:11 | 43.28083 | 11.59932 | 32838 ft | 470 kts | 347° |
| 2026-05-06 04:12 | 43.31323 | 11.59459 | 33153 ft | 469 kts | 347° |
| 2026-05-06 04:12 | 43.34583 | 11.58981 | 33485 ft | 469 kts | 347° |
| 2026-05-06 04:12 | 43.37817 | 11.58503 | 33820 ft | 468 kts | 347° |
| 2026-05-06 04:12 | 43.41049 | 11.58020 | 34102 ft | 467 kts | 346° |
| 2026-05-06 04:13 | 43.44281 | 11.57529 | 34355 ft | 467 kts | 346° |
| 2026-05-06 04:13 | 43.47504 | 11.57038 | 34630 ft | 466 kts | 346° |
| 2026-05-06 04:13 | 43.50683 | 11.56557 | 34910 ft | 465 kts | 346° |
| 2026-05-06 04:13 | 43.53896 | 11.56072 | 35165 ft | 465 kts | 346° |
| 2026-05-06 04:14 | 43.57106 | 11.55588 | 35406 ft | 464 kts | 346° |
| 2026-05-06 04:14 | 43.60305 | 11.55104 | 35656 ft | 463 kts | 346° |
| 2026-05-06 04:14 | 43.63516 | 11.54616 | 35892 ft | 463 kts | 346° |
| 2026-05-06 04:14 | 43.66716 | 11.54128 | 36125 ft | 463 kts | 346° |
| 2026-05-06 04:15 | 43.69916 | 11.53642 | 36360 ft | 462 kts | 346° |
| 2026-05-06 04:15 | 43.73116 | 11.53156 | 36600 ft | 462 kts | 346° |
| 2026-05-06 04:15 | 43.76310 | 11.52669 | 36826 ft | 462 kts | 346° |
| 2026-05-06 04:15 | 43.79505 | 11.52181 | 37048 ft | 462 kts | 346° |
| 2026-05-06 04:16 | 43.82653 | 11.51700 | 37238 ft | 462 kts | 346° |
| 2026-05-06 04:16 | 43.85844 | 11.51216 | 37443 ft | 461 kts | 346° |
| 2026-05-06 04:16 | 43.89036 | 11.50735 | 37650 ft | 461 kts | 347° |
| 2026-05-06 04:16 | 43.92222 | 11.50254 | 37861 ft | 460 kts | 347° |
| 2026-05-06 04:17 | 43.98598 | 11.49277 | 37962 ft | 461 kts | 347° |
| 2026-05-06 04:17 | 44.04970 | 11.48291 | 37964 ft | 461 kts | 347° |
| 2026-05-06 04:18 | 44.11308 | 11.47319 | 37973 ft | 462 kts | 347° |
| 2026-05-06 04:18 | 44.17688 | 11.46334 | 37975 ft | 462 kts | 347° |
| 2026-05-06 04:19 | 44.24078 | 11.45338 | 37964 ft | 462 kts | 347° |
| 2026-05-06 04:19 | 44.30466 | 11.44349 | 37970 ft | 463 kts | 347° |
| 2026-05-06 04:20 | 44.36823 | 11.43370 | 37952 ft | 462 kts | 347° |
| 2026-05-06 04:20 | 44.43217 | 11.42374 | 37945 ft | 462 kts | 347° |
| 2026-05-06 04:21 | 44.49611 | 11.41369 | 37937 ft | 462 kts | 347° |
| 2026-05-06 04:21 | 44.56005 | 11.40368 | 37944 ft | 463 kts | 347° |
| 2026-05-06 04:22 | 44.62358 | 11.39382 | 37944 ft | 462 kts | 347° |
| 2026-05-06 04:23 | 44.71995 | 11.37862 | 37927 ft | 466 kts | 346° |
| 2026-05-06 04:23 | 44.78457 | 11.36842 | 37937 ft | 468 kts | 346° |
| 2026-05-06 04:24 | 44.84935 | 11.35821 | 37951 ft | 469 kts | 346° |
| 2026-05-06 04:24 | 44.91421 | 11.34800 | 37958 ft | 469 kts | 346° |
| 2026-05-06 04:25 | 44.97869 | 11.33776 | 37957 ft | 470 kts | 346° |
| 2026-05-06 04:25 | 45.04374 | 11.32749 | 37963 ft | 470 kts | 346° |
| 2026-05-06 04:26 | 45.10877 | 11.31705 | 37973 ft | 471 kts | 347° |
| 2026-05-06 04:26 | 45.17387 | 11.30665 | 37968 ft | 470 kts | 347° |
| 2026-05-06 04:27 | 45.23847 | 11.29640 | 37967 ft | 470 kts | 347° |
| 2026-05-06 04:27 | 45.30346 | 11.28614 | 37973 ft | 470 kts | 347° |
| 2026-05-06 04:28 | 45.36848 | 11.27571 | 37970 ft | 470 kts | 347° |
| 2026-05-06 04:28 | 45.43349 | 11.26516 | 37962 ft | 470 kts | 347° |
| 2026-05-06 04:29 | 45.49802 | 11.25468 | 37965 ft | 470 kts | 347° |
| 2026-05-06 04:29 | 45.56293 | 11.24415 | 37975 ft | 469 kts | 347° |
| 2026-05-06 04:30 | 45.62781 | 11.23355 | 37981 ft | 469 kts | 348° |
| 2026-05-06 04:30 | 45.69265 | 11.22286 | 37984 ft | 469 kts | 348° |
| 2026-05-06 04:31 | 45.75702 | 11.21240 | 37989 ft | 469 kts | 348° |
| 2026-05-06 04:31 | 45.82180 | 11.20189 | 37982 ft | 468 kts | 348° |
| 2026-05-06 04:32 | 45.88667 | 11.19140 | 37991 ft | 469 kts | 348° |
| 2026-05-06 04:32 | 45.95104 | 11.18075 | 37995 ft | 469 kts | 348° |
| 2026-05-06 04:33 | 46.01588 | 11.17102 | 37998 ft | 471 kts | 354° |
| 2026-05-06 04:33 | 46.08151 | 11.18180 | 38007 ft | 480 kts | 10° |
| 2026-05-06 04:34 | 46.14656 | 11.20405 | 38007 ft | 480 kts | 10° |
| 2026-05-06 04:34 | 46.21120 | 11.22608 | 38011 ft | 481 kts | 10° |
| 2026-05-06 04:35 | 46.27628 | 11.24834 | 38013 ft | 481 kts | 10° |
| 2026-05-06 04:35 | 46.34145 | 11.27055 | 38013 ft | 481 kts | 10° |
| 2026-05-06 04:36 | 46.40667 | 11.29281 | 38001 ft | 481 kts | 9° |
| 2026-05-06 04:36 | 46.47255 | 11.29871 | 37986 ft | 471 kts | 349° |
| 2026-05-06 04:37 | 46.53472 | 11.27646 | 37981 ft | 459 kts | 332° |
| 2026-05-06 04:37 | 46.59298 | 11.23889 | 37968 ft | 458 kts | 330° |
| 2026-05-06 04:38 | 46.65140 | 11.20115 | 37965 ft | 459 kts | 330° |
| 2026-05-06 04:38 | 46.70987 | 11.16347 | 37955 ft | 460 kts | 330° |
| 2026-05-06 04:39 | 46.76800 | 11.12581 | 37953 ft | 460 kts | 330° |
| 2026-05-06 04:39 | 46.82652 | 11.08767 | 37931 ft | 461 kts | 331° |
| 2026-05-06 04:40 | 46.88502 | 11.04930 | 37927 ft | 461 kts | 330° |
| 2026-05-06 04:40 | 46.94338 | 11.01018 | 37925 ft | 461 kts | 330° |
| 2026-05-06 04:41 | 47.00140 | 10.97155 | 37911 ft | 462 kts | 330° |
| 2026-05-06 04:41 | 47.06015 | 10.93335 | 37899 ft | 462 kts | 331° |
| 2026-05-06 04:42 | 47.11900 | 10.89502 | 37894 ft | 462 kts | 331° |
| 2026-05-06 04:42 | 47.17771 | 10.85647 | 37897 ft | 462 kts | 331° |
| 2026-05-06 04:43 | 47.22576 | 10.82492 | 37895 ft | 461 kts | 330° |
| 2026-05-06 04:43 | 47.28431 | 10.78632 | 37891 ft | 461 kts | 330° |
| 2026-05-06 04:44 | 47.34267 | 10.74760 | 37890 ft | 460 kts | 330° |
| 2026-05-06 04:44 | 47.40116 | 10.70893 | 37891 ft | 461 kts | 332° |
| 2026-05-06 04:45 | 47.46030 | 10.67340 | 37881 ft | 462 kts | 334° |
| 2026-05-06 04:45 | 47.52042 | 10.63961 | 37885 ft | 462 kts | 334° |
| 2026-05-06 04:46 | 47.58048 | 10.60543 | 37886 ft | 462 kts | 334° |
| 2026-05-06 04:46 | 47.64025 | 10.57037 | 37893 ft | 462 kts | 333° |
| 2026-05-06 04:47 | 47.69994 | 10.53504 | 37890 ft | 462 kts | 333° |
| 2026-05-06 04:47 | 47.75779 | 10.50075 | 37898 ft | 462 kts | 333° |
| 2026-05-06 04:48 | 47.81748 | 10.46542 | 37892 ft | 462 kts | 333° |
| 2026-05-06 04:48 | 47.87717 | 10.43011 | 37891 ft | 461 kts | 333° |
| 2026-05-06 04:49 | 47.93672 | 10.39462 | 37886 ft | 461 kts | 333° |
| 2026-05-06 04:49 | 47.99621 | 10.35915 | 37885 ft | 461 kts | 334° |
| 2026-05-06 04:50 | 48.05535 | 10.32388 | 37885 ft | 461 kts | 334° |
| 2026-05-06 04:50 | 48.11487 | 10.28820 | 37882 ft | 461 kts | 333° |
| 2026-05-06 04:51 | 48.17442 | 10.25238 | 37885 ft | 461 kts | 334° |
| 2026-05-06 04:51 | 48.22969 | 10.20638 | 37859 ft | 450 kts | 317° |
| 2026-05-06 04:52 | 48.27808 | 10.14784 | 37855 ft | 450 kts | 316° |
| 2026-05-06 04:52 | 48.32682 | 10.08856 | 37861 ft | 451 kts | 316° |
| 2026-05-06 04:53 | 48.37554 | 10.02909 | 37854 ft | 451 kts | 316° |
| 2026-05-06 04:53 | 48.42436 | 9.96964 | 37864 ft | 452 kts | 316° |
| 2026-05-06 04:54 | 48.47326 | 9.90999 | 37865 ft | 452 kts | 316° |
| 2026-05-06 04:54 | 48.52180 | 9.85051 | 37866 ft | 453 kts | 316° |
| 2026-05-06 04:55 | 48.57060 | 9.79046 | 37746 ft | 454 kts | 316° |
| 2026-05-06 04:55 | 48.59500 | 9.76039 | 37473 ft | 453 kts | 316° |
| 2026-05-06 04:55 | 48.61929 | 9.73008 | 37204 ft | 452 kts | 315° |
| 2026-05-06 04:55 | 48.64319 | 9.69925 | 36833 ft | 451 kts | 314° |
| 2026-05-06 04:56 | 48.66691 | 9.66793 | 36038 ft | 453 kts | 314° |
| 2026-05-06 04:56 | 48.69016 | 9.63681 | 35279 ft | 454 kts | 313° |
| 2026-05-06 04:56 | 48.71383 | 9.60498 | 34416 ft | 457 kts | 313° |
| 2026-05-06 04:56 | 48.73772 | 9.57299 | 33556 ft | 459 kts | 313° |
| 2026-05-06 04:57 | 48.76157 | 9.54126 | 32919 ft | 454 kts | 313° |
| 2026-05-06 04:57 | 48.78521 | 9.51011 | 32326 ft | 448 kts | 313° |
| 2026-05-06 04:57 | 48.80867 | 9.47925 | 31739 ft | 443 kts | 313° |
| 2026-05-06 04:57 | 48.83179 | 9.44875 | 31159 ft | 438 kts | 313° |
| 2026-05-06 04:58 | 48.85461 | 9.41851 | 30581 ft | 433 kts | 312° |
| 2026-05-06 04:58 | 48.87712 | 9.38854 | 30049 ft | 428 kts | 311° |
| 2026-05-06 04:58 | 48.89934 | 9.35904 | 29812 ft | 423 kts | 314° |
| 2026-05-06 04:59 | 48.94954 | 9.31195 | 29016 ft | 429 kts | 326° |
| 2026-05-06 04:59 | 48.97638 | 9.29119 | 27524 ft | 434 kts | 327° |
| 2026-05-06 04:59 | 49.00316 | 9.27097 | 27090 ft | 424 kts | 328° |
| 2026-05-06 04:59 | 49.02942 | 9.25137 | 26628 ft | 418 kts | 328° |
| 2026-05-06 05:00 | 49.05538 | 9.23194 | 26103 ft | 413 kts | 328° |
| 2026-05-06 05:00 | 49.08099 | 9.21266 | 25593 ft | 409 kts | 328° |
| 2026-05-06 05:00 | 49.10640 | 9.19339 | 25100 ft | 405 kts | 328° |
| 2026-05-06 05:00 | 49.13146 | 9.17426 | 24611 ft | 401 kts | 328° |
| 2026-05-06 05:01 | 49.15633 | 9.15530 | 24131 ft | 399 kts | 330° |
| 2026-05-06 05:01 | 49.18207 | 9.14096 | 23660 ft | 401 kts | 341° |
| 2026-05-06 05:01 | 49.20964 | 9.13395 | 23139 ft | 403 kts | 353° |
| 2026-05-06 05:01 | 49.23770 | 9.13496 | 22630 ft | 403 kts | 2° |
| 2026-05-06 05:02 | 49.26551 | 9.13912 | 22151 ft | 400 kts | 2° |
| 2026-05-06 05:02 | 49.29305 | 9.14314 | 21677 ft | 397 kts | 2° |
| 2026-05-06 05:02 | 49.32045 | 9.14700 | 21200 ft | 394 kts | 2° |
| 2026-05-06 05:02 | 49.34762 | 9.15086 | 20723 ft | 391 kts | 2° |
| 2026-05-06 05:03 | 49.37460 | 9.15466 | 20225 ft | 389 kts | 3° |
| 2026-05-06 05:03 | 49.40118 | 9.15839 | 19746 ft | 387 kts | 3° |
| 2026-05-06 05:03 | 49.42796 | 9.16219 | 19257 ft | 386 kts | 3° |
| 2026-05-06 05:03 | 49.45462 | 9.16599 | 18773 ft | 384 kts | 3° |
| 2026-05-06 05:04 | 49.48120 | 9.16978 | 18276 ft | 383 kts | 3° |
| 2026-05-06 05:04 | 49.50771 | 9.17359 | 17770 ft | 382 kts | 3° |
| 2026-05-06 05:04 | 49.53411 | 9.17742 | 17289 ft | 379 kts | 3° |
| 2026-05-06 05:04 | 49.56031 | 9.18122 | 16814 ft | 376 kts | 3° |
| 2026-05-06 05:05 | 49.58629 | 9.18497 | 16340 ft | 374 kts | 3° |
| 2026-05-06 05:05 | 49.61179 | 9.18866 | 15891 ft | 372 kts | 3° |
| 2026-05-06 05:05 | 49.63724 | 9.19505 | 15433 ft | 372 kts | 14° |
| 2026-05-06 05:05 | 49.66117 | 9.20990 | 14975 ft | 371 kts | 28° |
| 2026-05-06 05:06 | 49.68232 | 9.23268 | 14501 ft | 371 kts | 41° |
| 2026-05-06 05:06 | 49.70047 | 9.26095 | 14032 ft | 370 kts | 46° |
| 2026-05-06 05:06 | 49.71964 | 9.28722 | 13551 ft | 369 kts | 34° |
| 2026-05-06 05:06 | 49.74193 | 9.30633 | 13045 ft | 365 kts | 21° |
| 2026-05-06 05:07 | 49.76609 | 9.31757 | 12538 ft | 360 kts | 9° |
| 2026-05-06 05:07 | 49.79054 | 9.32536 | 12040 ft | 358 kts | 9° |
| 2026-05-06 05:07 | 49.81499 | 9.33188 | 11539 ft | 354 kts | 1° |
| 2026-05-06 05:07 | 49.83889 | 9.32921 | 11073 ft | 347 kts | 348° |
| 2026-05-06 05:08 | 49.86241 | 9.32378 | 10818 ft | 336 kts | 348° |
| 2026-05-06 05:08 | 49.88527 | 9.31849 | 10566 ft | 326 kts | 348° |
| 2026-05-06 05:08 | 49.90698 | 9.31349 | 10317 ft | 306 kts | 348° |
| 2026-05-06 05:08 | 49.92750 | 9.30880 | 10072 ft | 292 kts | 348° |
| 2026-05-06 05:09 | 49.94744 | 9.30422 | 9840 ft | 288 kts | 348° |
| 2026-05-06 05:09 | 49.96724 | 9.29962 | 9662 ft | 287 kts | 348° |
| 2026-05-06 05:09 | 49.98696 | 9.29500 | 9532 ft | 286 kts | 348° |
| 2026-05-06 05:09 | 50.00641 | 9.29042 | 9407 ft | 285 kts | 348° |
| 2026-05-06 05:10 | 50.02597 | 9.28582 | 9269 ft | 284 kts | 348° |
| 2026-05-06 05:10 | 50.04549 | 9.28124 | 9145 ft | 284 kts | 348° |
| 2026-05-06 05:10 | 50.06511 | 9.27880 | 8891 ft | 284 kts | 0° |
| 2026-05-06 05:10 | 50.08462 | 9.28441 | 8537 ft | 286 kts | 16° |
| 2026-05-06 05:11 | 50.10255 | 9.29785 | 8162 ft | 288 kts | 32° |
| 2026-05-06 05:11 | 50.11754 | 9.31826 | 7868 ft | 285 kts | 49° |
| 2026-05-06 05:11 | 50.12843 | 9.34343 | 7663 ft | 278 kts | 64° |
| 2026-05-06 05:11 | 50.13555 | 9.37124 | 7322 ft | 275 kts | 67° |
| 2026-05-06 05:12 | 50.14598 | 9.39527 | 7041 ft | 269 kts | 40° |
| 2026-05-06 05:12 | 50.16119 | 9.41040 | 6913 ft | 253 kts | 17° |
| 2026-05-06 05:12 | 50.17791 | 9.41550 | 6719 ft | 241 kts | 357° |
| 2026-05-06 05:12 | 50.19438 | 9.41369 | 6449 ft | 234 kts | 340° |
| 2026-05-06 05:13 | 50.20856 | 9.40291 | 6179 ft | 223 kts | 315° |
| 2026-05-06 05:13 | 50.21795 | 9.38452 | 5874 ft | 214 kts | 290° |
| 2026-05-06 05:13 | 50.22126 | 9.36209 | 5769 ft | 214 kts | 268° |
| 2026-05-06 05:13 | 50.21841 | 9.33950 | 5770 ft | 214 kts | 248° |
| 2026-05-06 05:14 | 50.21297 | 9.31774 | 5790 ft | 216 kts | 248° |
| 2026-05-06 05:14 | 50.20763 | 9.29621 | 5791 ft | 216 kts | 249° |
| 2026-05-06 05:14 | 50.20223 | 9.27433 | 5773 ft | 216 kts | 249° |
| 2026-05-06 05:14 | 50.19685 | 9.25249 | 5784 ft | 216 kts | 249° |
| 2026-05-06 05:15 | 50.19144 | 9.23061 | 5780 ft | 216 kts | 249° |
| 2026-05-06 05:15 | 50.18611 | 9.20876 | 5781 ft | 215 kts | 250° |
| 2026-05-06 05:15 | 50.18098 | 9.18681 | 5778 ft | 216 kts | 250° |
| 2026-05-06 05:15 | 50.17588 | 9.16475 | 5789 ft | 216 kts | 250° |
| 2026-05-06 05:16 | 50.17081 | 9.14269 | 5771 ft | 216 kts | 250° |
| 2026-05-06 05:16 | 50.16576 | 9.12067 | 5773 ft | 216 kts | 250° |
| 2026-05-06 05:16 | 50.16073 | 9.09895 | 5774 ft | 216 kts | 249° |
| 2026-05-06 05:16 | 50.15554 | 9.07694 | 5773 ft | 216 kts | 250° |
| 2026-05-06 05:17 | 50.15037 | 9.05487 | 5775 ft | 217 kts | 250° |
| 2026-05-06 05:17 | 50.14522 | 9.03280 | 5777 ft | 217 kts | 250° |
| 2026-05-06 05:17 | 50.14007 | 9.01073 | 5783 ft | 217 kts | 250° |
| 2026-05-06 05:17 | 50.13493 | 8.98874 | 5702 ft | 214 kts | 250° |
| 2026-05-06 05:18 | 50.12987 | 8.96711 | 5462 ft | 211 kts | 250° |
| 2026-05-06 05:18 | 50.12485 | 8.94568 | 5191 ft | 210 kts | 250° |
| 2026-05-06 05:18 | 50.11986 | 8.92436 | 4919 ft | 209 kts | 250° |
| 2026-05-06 05:18 | 50.11494 | 8.90340 | 4640 ft | 201 kts | 250° |
| 2026-05-06 05:19 | 50.11031 | 8.88369 | 4372 ft | 191 kts | 250° |
| 2026-05-06 05:19 | 50.10586 | 8.86475 | 4125 ft | 182 kts | 250° |
| 2026-05-06 05:19 | 50.10156 | 8.84647 | 3901 ft | 178 kts | 250° |
| 2026-05-06 05:19 | 50.09736 | 8.82863 | 3635 ft | 173 kts | 250° |
| 2026-05-06 05:20 | 50.09325 | 8.81119 | 3407 ft | 169 kts | 249° |
| 2026-05-06 05:20 | 50.08928 | 8.79434 | 3187 ft | 164 kts | 249° |
| 2026-05-06 05:20 | 50.08670 | 8.78340 | 3043 ft | 161 kts | 249° |
| 2026-05-06 05:20 | 50.08285 | 8.76711 | 2827 ft | 159 kts | 249° |
| 2026-05-06 05:21 | 50.07794 | 8.74631 | 2543 ft | 146 kts | 249° |
| 2026-05-06 05:21 | 50.07459 | 8.73214 | 2379 ft | 136 kts | 249° |
| 2026-05-06 05:21 | 50.07139 | 8.71863 | 2194 ft | 132 kts | 248° |
| 2026-05-06 05:21 | 50.06930 | 8.70980 | 2078 ft | 131 kts | 248° |
| 2026-05-06 05:22 | 50.06615 | 8.69651 | 1894 ft | 131 kts | 248° |
| 2026-05-06 05:22 | 50.06303 | 8.68335 | 1717 ft | 129 kts | 247° |
| 2026-05-06 05:22 | 50.05992 | 8.67022 | 1539 ft | 129 kts | 247° |
| 2026-05-06 05:22 | 50.05577 | 8.65278 | 1305 ft | 130 kts | 248° |
| 2026-05-06 05:23 | 50.05265 | 8.63962 | 1124 ft | 129 kts | 247° |
| 2026-05-06 05:23 | 50.05052 | 8.63071 | 1001 ft | 131 kts | 246° |
| 2026-05-06 05:23 | 50.04424 | 8.60422 | 653 ft | 132 kts | 248° |
| 2026-05-06 05:24 | 50.04106 | 8.59082 | 457 ft | 131 kts | 246° |
| 2026-05-06 05:24 | 50.03795 | 8.57771 | 347 ft | 121 kts | 248° |
| 2026-05-06 05:24 | 50.03562 | 8.56801 | 350 ft | 71 kts | 249° |
| 2026-05-06 05:24 | 50.03442 | 8.56277 | 350 ft | 32 kts | 252° |
| 2026-05-06 05:25 | 50.03446 | 8.55984 | 350 ft | 14 kts | 278° |
| 2026-05-06 05:25 | 50.03464 | 8.55827 | 351 ft | 16 kts | 280° |
| 2026-05-06 05:25 | 50.03479 | 8.55728 | 353 ft | 9 kts | 300° |
| 2026-05-06 05:25 | 50.03526 | 8.55706 | 349 ft | 7 kts | 11° |
| 2026-05-06 05:26 | 50.03558 | 8.55754 | 347 ft | 8 kts | 62° |
| 2026-05-06 05:26 | 50.03591 | 8.55890 | 347 ft | 19 kts | 70° |
| 2026-05-06 05:26 | 50.03651 | 8.56128 | 353 ft | 26 kts | 69° |
| 2026-05-06 05:26 | 50.03712 | 8.56400 | 350 ft | 28 kts | 70° |
| 2026-05-06 05:27 | 50.03784 | 8.56689 | 349 ft | 30 kts | 68° |
| 2026-05-06 05:27 | 50.03855 | 8.56997 | 353 ft | 31 kts | 71° |
| 2026-05-06 05:27 | 50.03932 | 8.57319 | 353 ft | 32 kts | 70° |
| 2026-05-06 05:27 | 50.04013 | 8.57649 | 353 ft | 34 kts | 69° |
| 2026-05-06 05:28 | 50.04092 | 8.57993 | 347 ft | 29 kts | 70° |
| 2026-05-06 05:28 | 50.04170 | 8.58160 | 349 ft | 18 kts | 24° |
| 2026-05-06 05:28 | 50.04280 | 8.58202 | 348 ft | 15 kts | 350° |
| 2026-05-06 05:28 | 50.04374 | 8.58151 | 352 ft | 14 kts | 340° |
| 2026-05-06 05:29 | 50.04459 | 8.58104 | 350 ft | 12 kts | 340° |
| 2026-05-06 05:29 | 50.04539 | 8.58076 | 354 ft | 11 kts | 11° |
| 2026-05-06 05:29 | 50.04582 | 8.58184 | 351 ft | 13 kts | 70° |
| 2026-05-06 05:29 | 50.04612 | 8.58312 | 354 ft | 12 kts | 69° |
| 2026-05-06 05:30 | 50.04649 | 8.58463 | 352 ft | 19 kts | 70° |
| 2026-05-06 05:30 | 50.04705 | 8.58698 | 349 ft | 24 kts | 67° |
| 2026-05-06 05:30 | 50.04747 | 8.58854 | 353 ft | 6 kts | 71° |
| 2026-05-06 05:30 | 50.04776 | 8.58870 | 349 ft | 5 kts | 345° |
| 2026-05-06 05:31 | 50.04821 | 8.58842 | 350 ft | 1 kts | 338° |
| 2026-05-06 05:31 | 50.04829 | 8.58837 | 347 ft | 2 kts | 339° |
| 2026-05-06 05:31 | 50.04831 | 8.58836 | 347 ft | 0 kts | 339° |
| 2026-05-06 05:33 | 50.04830 | 8.58836 | 347 ft | 0 kts | 339° |